createdAt,value
2023-03-19T00:02:21.947Z,8.68
2023-03-19T00:06:23.441Z,9.38
2023-03-19T00:10:24.992Z,8.88
2023-03-19T00:14:26.560Z,8.73
2023-03-19T00:18:28.224Z,7.82
2023-03-19T00:22:29.735Z,8.57
2023-03-19T00:26:32.788Z,8.45
2023-03-19T00:30:34.373Z,7.68
2023-03-19T00:34:35.898Z,8.23
2023-03-19T00:38:37.838Z,8.90
2023-03-19T00:42:39.323Z,8.10
2023-03-19T00:46:40.758Z,8.23
2023-03-19T00:50:42.238Z,7.40
2023-03-19T00:54:43.716Z,7.97
2023-03-19T00:58:45.816Z,7.93
2023-03-19T01:02:47.295Z,7.70
2023-03-19T01:06:49.077Z,8.18
2023-03-19T01:10:50.623Z,7.85
2023-03-19T01:14:52.367Z,8.25
2023-03-19T01:18:54.162Z,7.50
2023-03-19T01:22:55.986Z,8.07
2023-03-19T01:26:57.483Z,8.30
2023-03-19T01:31:01.893Z,7.32
2023-03-19T01:35:03.681Z,8.18
2023-03-19T01:39:05.337Z,8.35
2023-03-19T01:43:12.743Z,8.27
2023-03-19T01:47:24.577Z,7.38
2023-03-19T01:51:29.918Z,8.20
2023-03-19T01:55:31.469Z,7.78
2023-03-19T01:59:54.057Z,7.55
2023-03-19T02:03:56.534Z,8.05
2023-03-19T02:08:05.366Z,8.45
2023-03-19T02:12:09.176Z,7.95
2023-03-19T02:16:11.225Z,9.20
2023-03-19T02:20:28.163Z,7.90
2023-03-19T02:24:35.920Z,8.77
2023-03-19T02:28:42.433Z,9.30
2023-03-19T02:32:44.607Z,9.13
2023-03-19T02:36:51.956Z,8.55
2023-03-19T02:41:08.307Z,8.60
2023-03-19T02:45:10.213Z,9.20
2023-03-19T02:49:11.799Z,8.77
2023-03-19T02:53:13.320Z,8.98
2023-03-19T02:57:14.844Z,8.35
2023-03-19T03:01:16.325Z,8.15
2023-03-19T03:05:18.454Z,9.25
2023-03-19T03:09:20.084Z,9.10
2023-03-19T03:13:22.066Z,8.25
2023-03-19T03:17:24.210Z,8.63
2023-03-19T03:21:26.141Z,9.75
2023-03-19T03:25:27.637Z,8.93
2023-03-19T03:29:29.271Z,9.52
2023-03-19T03:33:30.778Z,8.68
2023-03-19T03:37:32.647Z,9.13
2023-03-19T03:41:34.170Z,9.30
2023-03-19T03:45:36.048Z,9.57
2023-03-19T03:49:37.594Z,9.48
2023-03-19T03:53:39.046Z,10.23
2023-03-19T03:57:40.490Z,8.70
2023-03-19T04:01:42.028Z,9.20
2023-03-19T04:05:44.397Z,9.23
2023-03-19T04:09:46.301Z,9.65
2023-03-19T04:13:47.767Z,9.27
2023-03-19T04:17:49.458Z,9.73
2023-03-19T04:21:51.064Z,9.68
2023-03-19T04:25:52.750Z,8.98
2023-03-19T04:29:54.741Z,9.50
2023-03-19T04:33:56.292Z,10.45
2023-03-19T04:37:57.763Z,8.95
2023-03-19T04:41:59.337Z,9.35
2023-03-19T04:46:00.861Z,8.88
2023-03-19T04:50:02.802Z,9.00
2023-03-19T04:54:05.405Z,10.32
2023-03-19T04:58:06.923Z,9.63
2023-03-19T05:02:08.441Z,9.82
2023-03-19T05:06:09.904Z,9.60
2023-03-19T05:10:11.868Z,9.00
2023-03-19T05:14:13.334Z,9.48
2023-03-19T05:18:14.881Z,11.45
2023-03-19T05:22:17.143Z,12.02
2023-03-19T05:26:19.003Z,10.75
2023-03-19T05:30:20.617Z,10.18
2023-03-19T05:34:22.326Z,11.50
2023-03-19T05:38:23.876Z,11.13
2023-03-19T05:42:25.477Z,11.55
2023-03-19T05:46:27.421Z,10.18
2023-03-19T05:50:29.001Z,10.55
2023-03-19T05:54:30.688Z,11.20
2023-03-19T05:58:32.158Z,10.52
2023-03-19T06:02:37.540Z,11.07
2023-03-19T06:06:38.994Z,10.88
2023-03-19T06:10:40.648Z,11.48
2023-03-19T06:14:42.119Z,11.35
2023-03-19T06:18:44.085Z,9.95
2023-03-19T06:22:45.726Z,10.57
2023-03-19T06:26:47.373Z,10.18
2023-03-19T06:30:48.974Z,10.48
2023-03-19T06:34:50.910Z,10.25
2023-03-19T06:38:52.548Z,10.00
2023-03-19T06:42:54.063Z,10.30
2023-03-19T06:46:55.671Z,10.35
2023-03-19T06:50:57.111Z,11.00
2023-03-19T06:54:58.802Z,11.60
2023-03-19T06:59:00.248Z,11.02
2023-03-19T07:03:01.712Z,11.32
2023-03-19T07:07:05.321Z,7.53
2023-03-19T07:11:07.574Z,8.90
2023-03-19T07:15:09.342Z,11.35
2023-03-19T07:19:11.416Z,10.88
2023-03-19T07:23:13.224Z,13.02
2023-03-19T07:27:14.889Z,12.00
2023-03-19T07:31:17.001Z,12.50
2023-03-19T07:35:18.732Z,13.45
2023-03-19T07:39:21.092Z,11.65
2023-03-19T07:43:22.718Z,10.52
2023-03-19T07:47:29.433Z,33.90
2023-03-19T07:51:31.114Z,12.13
2023-03-19T07:55:32.544Z,10.25
2023-03-19T07:59:34.051Z,10.40
2023-03-19T08:03:35.637Z,10.10
2023-03-19T08:07:37.538Z,10.00
2023-03-19T08:11:38.997Z,10.10
2023-03-19T08:15:40.753Z,7.60
2023-03-19T08:19:42.289Z,8.63
2023-03-19T08:23:43.788Z,9.18
2023-03-19T08:27:45.308Z,9.95
2023-03-19T08:31:46.841Z,7.68
2023-03-19T08:35:48.490Z,10.73
2023-03-19T08:39:52.076Z,11.38
2023-03-19T08:43:53.588Z,13.02
2023-03-19T08:47:57.850Z,11.23
2023-03-19T08:51:59.275Z,12.48
2023-03-19T08:56:02.810Z,13.25
2023-03-19T09:00:05.798Z,13.05
2023-03-19T09:04:07.337Z,13.70
2023-03-19T09:08:09.169Z,14.82
2023-03-19T09:12:13.658Z,14.18
2023-03-19T09:16:15.989Z,12.52
2023-03-19T09:20:17.885Z,15.40
2023-03-19T09:24:19.426Z,12.80
2023-03-19T09:28:21.137Z,13.65
2023-03-19T09:32:22.633Z,12.73
2023-03-19T09:36:24.236Z,11.82
2023-03-19T09:40:47.837Z,12.68
2023-03-19T09:44:52.315Z,10.13
2023-03-19T09:48:56.467Z,11.40
2023-03-19T09:53:13.413Z,10.85
2023-03-19T09:57:17.390Z,11.43
2023-03-19T10:01:27.620Z,10.93
2023-03-19T10:05:45.364Z,11.93
2023-03-19T10:10:00.631Z,10.57
2023-03-19T10:14:20.151Z,11.18
2023-03-19T10:18:46.626Z,11.18
2023-03-19T10:22:53.318Z,10.57
2023-03-19T10:27:01.514Z,11.55
2023-03-19T10:31:26.414Z,9.93
2023-03-19T10:35:45.483Z,19.88
2023-03-19T10:39:49.457Z,9.80
2023-03-19T10:43:59.183Z,10.57
2023-03-19T10:52:03.490Z,10.50
2023-03-19T10:56:06.538Z,8.82
2023-03-19T11:00:19.994Z,10.02
2023-03-19T11:04:22.789Z,8.52
2023-03-19T11:08:35.392Z,10.38
2023-03-19T11:12:37.732Z,7.40
2023-03-19T11:16:51.408Z,7.65
2023-03-19T11:21:05.451Z,7.55
2023-03-19T11:25:28.261Z,7.45
2023-03-19T11:29:30.089Z,7.25
2023-03-19T11:33:46.379Z,7.57
2023-03-19T11:37:47.992Z,7.55
2023-03-19T11:42:05.640Z,8.95
2023-03-19T11:46:16.167Z,6.25
2023-03-19T11:50:25.186Z,7.20
2023-03-19T11:54:46.197Z,5.75
2023-03-19T11:59:05.299Z,5.50
2023-03-19T12:03:32.399Z,5.33
2023-03-19T12:07:53.189Z,5.40
2023-03-19T12:12:03.559Z,5.15
2023-03-19T12:16:28.648Z,5.82
2023-03-19T12:20:42.232Z,5.38
2023-03-19T12:24:54.832Z,5.18
2023-03-19T12:29:21.289Z,6.18
2023-03-19T12:34:01.757Z,3.95
2023-03-19T12:38:10.756Z,4.32
2023-03-19T12:42:18.844Z,4.43
2023-03-19T12:46:33.762Z,4.70
2023-03-19T12:50:39.700Z,4.53
2023-03-19T12:54:48.923Z,4.90
2023-03-19T12:59:02.233Z,4.25
2023-03-19T13:03:15.709Z,4.88
2023-03-19T13:08:16.888Z,4.28
2023-03-19T13:12:28.051Z,4.97
2023-03-19T13:16:45.828Z,4.55
2023-03-19T13:21:09.885Z,4.70
2023-03-19T13:25:17.706Z,4.82
2023-03-19T13:29:28.198Z,5.15
2023-03-19T13:33:29.983Z,5.45
2023-03-19T13:37:31.520Z,5.03
2023-03-19T13:41:33.023Z,5.32
2023-03-19T13:45:36.564Z,5.93
2023-03-19T13:50:21.079Z,5.13
2023-03-19T13:54:35.082Z,4.75
2023-03-19T13:58:52.048Z,4.63
2023-03-19T14:02:53.769Z,4.68
2023-03-19T14:07:09.915Z,4.70
2023-03-19T14:11:12.580Z,4.80
2023-03-19T14:15:21.356Z,4.47
2023-03-19T14:19:22.947Z,5.07
2023-03-19T14:23:38.370Z,4.72
2023-03-19T14:27:48.746Z,4.60
2023-03-19T14:35:53.258Z,4.65
2023-03-19T14:40:14.189Z,4.50
2023-03-19T14:44:45.219Z,4.78
2023-03-19T14:49:23.981Z,4.90
2023-03-19T14:53:48.712Z,5.40
2023-03-19T14:57:50.186Z,5.65
2023-03-19T15:01:54.750Z,5.50
2023-03-19T15:05:59.695Z,5.75
2023-03-19T15:10:06.299Z,5.65
2023-03-19T15:14:18.768Z,5.80
2023-03-19T15:18:20.853Z,5.80
2023-03-19T15:22:29.305Z,7.05
2023-03-19T15:26:36.501Z,5.82
2023-03-19T15:30:52.438Z,5.40
2023-03-19T15:34:59.510Z,5.80
2023-03-19T15:39:04.932Z,5.97
2023-03-19T15:43:13.324Z,5.97
2023-03-19T15:47:26.706Z,5.82
2023-03-19T15:51:29.387Z,6.05
2023-03-19T15:55:35.512Z,6.55
2023-03-19T15:59:37.777Z,7.25
2023-03-19T16:03:45.914Z,6.68
2023-03-19T16:08:15.607Z,5.78
2023-03-19T16:12:52.372Z,5.88
2023-03-19T16:17:10.826Z,7.70
2023-03-19T16:21:26.728Z,6.60
2023-03-19T16:25:34.875Z,6.47
2023-03-19T16:29:43.220Z,7.45
2023-03-19T16:33:45.448Z,7.20
2023-03-19T16:37:51.176Z,7.65
2023-03-19T16:42:11.122Z,7.63
2023-03-19T16:50:16.194Z,7.45
2023-03-19T16:54:17.737Z,7.88
2023-03-19T16:58:22.162Z,7.43
2023-03-19T17:02:25.709Z,7.95
2023-03-19T17:06:31.540Z,8.38
2023-03-19T17:10:34.443Z,6.93
2023-03-19T17:14:42.157Z,8.70
2023-03-19T17:18:47.786Z,8.13
2023-03-19T17:22:49.514Z,8.13
2023-03-19T17:26:51.964Z,7.35
2023-03-19T17:30:53.580Z,8.52
2023-03-19T17:34:55.094Z,7.93
2023-03-19T17:38:57.187Z,9.38
2023-03-19T17:43:08.311Z,8.15
2023-03-19T17:47:12.758Z,9.25
2023-03-19T17:51:14.635Z,8.98
2023-03-19T17:55:19.717Z,10.00
2023-03-19T17:59:22.074Z,8.70
2023-03-19T18:03:28.719Z,8.65
2023-03-19T18:07:32.503Z,8.93
2023-03-19T18:11:33.975Z,8.60
2023-03-19T18:15:37.236Z,8.75
2023-03-19T18:19:46.002Z,8.80
2023-03-19T18:23:47.922Z,9.13
2023-03-19T18:27:50.907Z,9.32
2023-03-19T18:32:02.953Z,10.07
2023-03-19T18:36:04.761Z,15.80
2023-03-19T18:40:06.930Z,14.07
2023-03-19T18:44:09.111Z,14.27
2023-03-19T18:48:24.237Z,15.05
2023-03-19T18:52:25.898Z,11.57
2023-03-19T18:56:31.032Z,8.90
2023-03-19T19:00:35.708Z,9.82
2023-03-19T19:04:37.476Z,15.88
2023-03-19T19:08:38.901Z,14.10
2023-03-19T19:12:44.859Z,23.20
2023-03-19T19:16:46.658Z,11.82
2023-03-19T19:20:51.170Z,12.88
2023-03-19T19:24:52.733Z,9.48
2023-03-19T19:28:56.770Z,9.60
2023-03-19T19:32:58.534Z,8.43
2023-03-19T19:37:00.360Z,8.25
2023-03-19T19:41:02.060Z,8.13
2023-03-19T19:45:04.378Z,8.85
2023-03-19T19:49:06.298Z,8.48
2023-03-19T19:53:07.843Z,7.47
2023-03-19T19:57:22.543Z,6.70
2023-03-19T20:01:25.726Z,6.55
2023-03-19T20:05:30.801Z,6.57
2023-03-19T20:09:32.311Z,6.63
2023-03-19T20:13:34.850Z,6.40
2023-03-19T20:17:36.931Z,6.60
2023-03-19T20:21:39.084Z,6.55
2023-03-19T20:25:41.250Z,6.40
2023-03-19T20:29:43.165Z,6.45
2023-03-19T20:33:44.702Z,6.53
2023-03-19T20:37:46.736Z,5.32
2023-03-19T20:41:49.810Z,5.38
2023-03-19T20:45:51.966Z,5.40
2023-03-19T20:49:54.048Z,4.97
2023-03-19T20:53:55.682Z,5.30
2023-03-19T20:57:57.961Z,5.05
2023-03-19T21:01:59.471Z,5.07
2023-03-19T21:06:04.605Z,4.70
2023-03-19T21:10:34.272Z,6.00
2023-03-19T21:14:35.860Z,5.23
2023-03-19T21:18:37.326Z,5.15
2023-03-19T21:22:38.830Z,5.38
2023-03-19T21:26:42.422Z,4.93
2023-03-19T21:30:46.038Z,4.88
2023-03-19T21:34:49.049Z,4.57
2023-03-19T21:38:52.461Z,5.38
2023-03-19T21:42:58.016Z,4.93
2023-03-19T21:47:02.456Z,7.07
2023-03-19T21:51:04.643Z,5.25
2023-03-19T21:55:06.737Z,4.93
2023-03-19T21:59:17.963Z,4.90
2023-03-19T22:03:21.536Z,4.80
2023-03-19T22:07:23.216Z,4.47
2023-03-19T22:11:28.272Z,4.03
2023-03-19T22:15:37.435Z,3.70
2023-03-19T22:19:39.096Z,3.70
2023-03-19T22:23:40.690Z,4.15
2023-03-19T22:27:43.714Z,3.08
2023-03-19T22:31:47.785Z,4.68
2023-03-19T22:35:50.280Z,4.22
2023-03-19T22:39:52.779Z,3.75
2023-03-19T22:43:55.447Z,3.70
2023-03-19T22:47:58.223Z,3.70
2023-03-19T22:51:59.737Z,3.28
2023-03-19T22:56:01.933Z,3.50
2023-03-19T23:00:11.979Z,3.88
2023-03-19T23:04:23.939Z,3.75
2023-03-19T23:08:26.006Z,3.67
2023-03-19T23:12:27.549Z,3.78
2023-03-19T23:16:29.064Z,3.42
2023-03-19T23:20:34.558Z,3.47
2023-03-19T23:24:36.177Z,4.20
2023-03-19T23:28:37.670Z,3.75
2023-03-19T23:32:39.154Z,3.47
2023-03-19T23:36:41.844Z,3.28
2023-03-19T23:40:46.134Z,4.00
2023-03-19T23:44:48.109Z,3.25
2023-03-19T23:48:49.547Z,4.13
2023-03-19T23:52:51.248Z,3.80
2023-03-19T23:56:53.382Z,3.38
